createdAt,value
2022-11-26T00:00:59.388Z,22.77
2022-11-26T00:06:02.988Z,19.35
2022-11-26T00:11:07.880Z,18.75
2022-11-26T00:16:13.426Z,18.45
2022-11-26T00:21:23.355Z,19.52
2022-11-26T00:26:25.586Z,16.88
2022-11-26T00:31:28.767Z,18.73
2022-11-26T00:36:33.194Z,18.17
2022-11-26T00:41:38.816Z,25.85
2022-11-26T00:46:40.627Z,21.63
2022-11-26T00:51:43.645Z,21.70
2022-11-26T00:56:45.990Z,19.33
2022-11-26T01:01:48.175Z,26.13
2022-11-26T01:06:50.047Z,19.70
2022-11-26T01:11:54.507Z,20.58
2022-11-26T01:16:57.509Z,20.75
2022-11-26T01:21:59.388Z,21.38
2022-11-26T01:27:01.177Z,22.38
2022-11-26T01:32:03.099Z,20.35
2022-11-26T01:37:12.076Z,25.67
2022-11-26T01:42:26.652Z,18.27
2022-11-26T01:47:30.533Z,19.25
2022-11-26T01:52:32.672Z,23.38
2022-11-26T01:57:38.597Z,20.13
2022-11-26T02:02:41.380Z,18.98
2022-11-26T02:07:43.310Z,22.83
2022-11-26T02:12:45.808Z,22.67
2022-11-26T02:17:56.960Z,22.25
2022-11-26T02:23:16.284Z,19.42
2022-11-26T02:28:45.328Z,23.98
2022-11-26T02:34:05.300Z,21.83
2022-11-26T02:39:22.659Z,29.17
2022-11-26T02:44:28.551Z,20.25
2022-11-26T02:49:33.963Z,20.27
2022-11-26T02:54:38.193Z,24.13
2022-11-26T02:59:40.869Z,21.08
2022-11-26T03:04:47.211Z,17.95
2022-11-26T03:09:56.397Z,23.55
2022-11-26T03:14:58.307Z,22.08
2022-11-26T03:20:00.264Z,21.10
2022-11-26T03:25:02.142Z,22.35
2022-11-26T03:30:04.944Z,19.98
2022-11-26T03:35:07.221Z,24.00
2022-11-26T03:40:10.088Z,19.20
2022-11-26T03:45:12.283Z,27.52
2022-11-26T03:50:14.031Z,27.58
2022-11-26T03:55:15.919Z,28.02
2022-11-26T04:00:18.226Z,21.02
2022-11-26T04:05:20.042Z,25.63
2022-11-26T04:10:21.958Z,22.48
2022-11-26T04:15:23.816Z,19.88
2022-11-26T04:20:25.850Z,22.08
2022-11-26T04:25:27.661Z,25.65
2022-11-26T04:30:30.134Z,22.95
2022-11-26T04:35:32.012Z,21.98
2022-11-26T04:40:33.792Z,24.98
2022-11-26T04:45:35.615Z,25.33
2022-11-26T04:50:37.698Z,22.75
2022-11-26T04:55:39.545Z,25.50
2022-11-26T05:00:41.415Z,35.60
2022-11-26T05:05:43.413Z,33.17
2022-11-26T05:10:45.387Z,34.35
2022-11-26T05:15:47.445Z,32.58
2022-11-26T05:20:49.237Z,30.73
2022-11-26T05:25:51.356Z,31.17
2022-11-26T05:31:00.892Z,33.20
2022-11-26T05:36:02.833Z,32.67
2022-11-26T05:41:04.749Z,32.72
2022-11-26T05:46:08.179Z,24.52
2022-11-26T05:51:10.350Z,27.52
2022-11-26T05:56:12.622Z,28.35
2022-11-26T06:01:14.604Z,29.85
2022-11-26T06:06:16.448Z,29.77
2022-11-26T06:11:18.339Z,30.17
2022-11-26T06:16:20.165Z,27.27
2022-11-26T06:21:22.183Z,29.23
2022-11-26T06:26:24.024Z,35.25
2022-11-26T06:31:25.920Z,34.35
2022-11-26T06:36:27.802Z,33.65
2022-11-26T06:41:29.609Z,35.00
2022-11-26T06:46:33.948Z,34.30
2022-11-26T06:51:35.700Z,37.08
2022-11-26T06:56:37.494Z,38.75
2022-11-26T07:01:39.593Z,36.65
2022-11-26T07:06:41.612Z,40.83
2022-11-26T07:11:43.560Z,39.10
2022-11-26T07:16:45.350Z,36.17
2022-11-26T07:21:47.134Z,40.13
2022-11-26T07:26:49.018Z,34.80
2022-11-26T07:31:50.844Z,35.97
2022-11-26T07:36:57.769Z,35.72
2022-11-26T07:41:59.943Z,37.25
2022-11-26T07:47:03.694Z,34.55
2022-11-26T07:52:05.601Z,33.10
2022-11-26T07:57:07.506Z,39.97
2022-11-26T08:02:14.822Z,37.55
2022-11-26T08:07:24.368Z,40.38
2022-11-26T08:12:29.392Z,37.30
2022-11-26T08:17:31.177Z,41.58
2022-11-26T08:22:32.998Z,39.78
2022-11-26T08:27:34.826Z,52.33
2022-11-26T08:32:37.218Z,33.72
2022-11-26T08:37:39.078Z,38.95
2022-11-26T08:42:40.840Z,38.78
2022-11-26T08:47:42.621Z,35.88
2022-11-26T08:52:44.416Z,37.28
2022-11-26T08:57:47.119Z,32.63
2022-11-26T09:02:48.939Z,32.22
2022-11-26T09:07:50.812Z,31.77
2022-11-26T09:12:52.658Z,29.13
2022-11-26T09:17:54.433Z,24.95
2022-11-26T09:22:56.258Z,31.30
2022-11-26T09:27:58.036Z,24.77
2022-11-26T09:32:59.877Z,26.88
2022-11-26T09:38:01.688Z,26.92
2022-11-26T09:43:19.231Z,23.17
2022-11-26T09:48:25.241Z,21.00
2022-11-26T09:53:33.264Z,16.30
2022-11-26T09:58:48.798Z,11.98
2022-11-26T10:03:51.535Z,17.52
2022-11-26T10:09:18.252Z,14.50
2022-11-26T10:14:23.014Z,14.45
2022-11-26T10:19:32.143Z,14.90
2022-11-26T10:24:38.676Z,18.60
2022-11-26T10:29:48.740Z,15.25
2022-11-26T10:34:56.172Z,12.52
2022-11-26T10:40:07.513Z,16.23
2022-11-26T10:45:23.521Z,12.07
2022-11-26T10:55:48.787Z,15.68
2022-11-26T11:00:50.632Z,14.00
2022-11-26T11:06:12.330Z,13.23
2022-11-26T11:11:28.042Z,13.40
2022-11-26T11:16:39.596Z,16.50
2022-11-26T11:21:48.046Z,11.98
2022-11-26T11:26:53.564Z,16.42
2022-11-26T11:31:57.693Z,16.58
2022-11-26T11:37:14.866Z,13.13
2022-11-26T11:42:23.545Z,14.88
2022-11-26T11:47:42.913Z,15.68
2022-11-26T11:52:54.736Z,18.15
2022-11-26T11:58:25.343Z,17.13
2022-11-26T12:03:43.300Z,20.75
2022-11-26T12:09:09.862Z,19.23
2022-11-26T12:14:22.248Z,13.52
2022-11-26T12:19:32.901Z,13.90
2022-11-26T12:24:56.483Z,14.73
2022-11-26T12:30:03.817Z,16.58
2022-11-26T12:35:12.492Z,13.60
2022-11-26T12:40:20.578Z,13.75
2022-11-26T12:45:38.149Z,16.02
2022-11-26T12:51:04.570Z,10.82
2022-11-26T12:56:34.547Z,13.48
2022-11-26T13:01:36.747Z,14.15
2022-11-26T13:07:10.915Z,11.57
2022-11-26T13:12:18.053Z,13.85
2022-11-26T13:17:26.622Z,10.52
2022-11-26T13:22:37.412Z,13.68
2022-11-26T13:28:18.399Z,10.18
2022-11-26T13:33:35.291Z,17.75
2022-11-26T13:38:43.079Z,12.43
2022-11-26T13:44:25.194Z,16.30
2022-11-26T13:49:57.389Z,14.32
2022-11-26T13:55:25.303Z,15.30
2022-11-26T14:00:33.049Z,14.88
2022-11-26T14:05:50.162Z,14.52
2022-11-26T14:10:51.952Z,13.63
2022-11-26T14:15:59.951Z,14.10
2022-11-26T14:21:01.799Z,15.43
2022-11-26T14:26:03.639Z,12.18
2022-11-26T14:31:20.686Z,14.63
2022-11-26T14:36:28.666Z,12.18
2022-11-26T14:41:42.667Z,14.48
2022-11-26T14:46:47.799Z,12.45
2022-11-26T14:51:50.803Z,13.98
2022-11-26T14:56:52.609Z,20.13
2022-11-26T15:01:54.455Z,25.70
2022-11-26T15:06:56.779Z,18.63
2022-11-26T15:12:14.921Z,14.00
2022-11-26T15:17:20.557Z,19.05
2022-11-26T15:22:30.187Z,15.60
2022-11-26T15:27:38.604Z,17.17
2022-11-26T15:32:40.372Z,12.38
2022-11-26T15:37:42.470Z,10.77
2022-11-26T15:42:47.162Z,11.98
2022-11-26T15:47:53.721Z,11.80
2022-11-26T15:53:01.048Z,15.20
2022-11-26T15:58:08.763Z,17.98
2022-11-26T16:03:55.679Z,62.05
2022-11-26T16:09:12.577Z,25.77
2022-11-26T16:14:30.223Z,16.73
2022-11-26T16:19:33.072Z,39.70
2022-11-26T16:24:40.302Z,16.50
2022-11-26T16:29:42.180Z,31.55
2022-11-26T16:34:44.927Z,36.78
2022-11-26T16:39:47.075Z,36.42
2022-11-26T16:44:49.883Z,55.45
2022-11-26T16:49:52.141Z,34.15
2022-11-26T16:54:53.959Z,27.83
2022-11-26T17:00:03.834Z,24.70
2022-11-26T17:05:06.338Z,33.20
2022-11-26T17:10:16.866Z,29.10
2022-11-26T17:15:18.850Z,27.77
2022-11-26T17:20:23.553Z,28.63
2022-11-26T17:25:25.473Z,30.52
2022-11-26T17:30:27.296Z,32.30
2022-11-26T17:35:29.127Z,33.90
2022-11-26T17:40:30.892Z,29.40
2022-11-26T17:45:32.652Z,32.78
2022-11-26T17:50:36.356Z,33.45
2022-11-26T17:55:38.658Z,31.45
2022-11-26T18:00:40.485Z,36.80
2022-11-26T18:05:42.604Z,45.33
2022-11-26T18:10:44.412Z,42.22
2022-11-26T18:15:46.266Z,42.08
2022-11-26T18:20:48.139Z,44.35
2022-11-26T18:25:49.921Z,43.97
2022-11-26T18:30:57.288Z,51.50
2022-11-26T18:35:59.230Z,51.28
2022-11-26T18:41:03.630Z,59.40
2022-11-26T18:46:11.143Z,59.88
2022-11-26T18:51:13.888Z,61.03
2022-11-26T18:56:19.152Z,51.38
2022-11-26T19:01:24.198Z,46.58
2022-11-26T19:06:29.661Z,45.40
2022-11-26T19:11:37.997Z,39.50
2022-11-26T19:16:42.103Z,41.35
2022-11-26T19:21:44.402Z,38.58
2022-11-26T19:26:46.223Z,41.35
2022-11-26T19:31:48.056Z,46.00
2022-11-26T19:36:50.359Z,47.47
2022-11-26T19:41:52.188Z,40.80
2022-11-26T19:46:54.180Z,46.55
2022-11-26T19:51:56.088Z,42.40
2022-11-26T19:56:57.963Z,45.33
2022-11-26T20:01:59.928Z,48.47
2022-11-26T20:07:01.855Z,58.05
2022-11-26T20:12:03.857Z,59.53
2022-11-26T20:17:05.791Z,69.70
2022-11-26T20:22:07.634Z,71.43
2022-11-26T20:27:09.531Z,57.53
2022-11-26T20:32:12.895Z,60.33
2022-11-26T20:37:14.670Z,51.10
2022-11-26T20:42:16.488Z,46.63
2022-11-26T20:47:18.330Z,62.08
2022-11-26T20:52:21.566Z,64.90
2022-11-26T20:57:23.688Z,65.00
2022-11-26T21:02:25.546Z,72.25
2022-11-26T21:07:29.895Z,66.77
2022-11-26T21:12:31.706Z,68.83
2022-11-26T21:17:33.611Z,66.60
2022-11-26T21:22:35.440Z,55.00
2022-11-26T21:27:37.226Z,51.87
2022-11-26T21:32:39.020Z,52.27
2022-11-26T21:37:40.815Z,52.43
2022-11-26T21:42:42.622Z,46.50
2022-11-26T21:47:45.110Z,54.30
2022-11-26T21:52:46.892Z,47.05
2022-11-26T21:57:48.700Z,47.60
2022-11-26T22:02:51.311Z,52.10
2022-11-26T22:07:53.140Z,45.63
2022-11-26T22:12:56.102Z,48.23
2022-11-26T22:17:57.915Z,41.92
2022-11-26T22:22:59.722Z,45.20
2022-11-26T22:28:01.577Z,39.78
2022-11-26T22:33:05.393Z,47.25
2022-11-26T22:38:07.154Z,41.00
2022-11-26T22:43:08.942Z,37.80
2022-11-26T22:48:12.107Z,39.88
2022-11-26T22:53:13.875Z,34.53
2022-11-26T22:58:15.629Z,35.25
2022-11-26T23:03:18.302Z,33.15
2022-11-26T23:08:20.763Z,32.90
2022-11-26T23:13:22.937Z,33.67
2022-11-26T23:18:24.965Z,33.03
2022-11-26T23:23:26.783Z,34.33
2022-11-26T23:28:29.218Z,35.97
2022-11-26T23:33:31.121Z,28.40
2022-11-26T23:38:33.231Z,32.65
2022-11-26T23:43:36.912Z,36.33
2022-11-26T23:48:38.935Z,33.05
2022-11-26T23:53:44.117Z,30.25
2022-11-26T23:58:49.940Z,29.75
